sensor_id;sensor_type;location;lat;lon;timestamp;P1;P2;P0
72329;PMS5003;60660;52.076;5.110;2023-03-23T00:01:17;14;14;
72329;PMS5003;60660;52.076;5.110;2023-03-23T00:03:42;14;13;
72329;PMS5003;60660;52.076;5.110;2023-03-23T00:06:07;15;14;
72329;PMS5003;60660;52.076;5.110;2023-03-23T00:08:34;13;13;
72329;PMS5003;60660;52.076;5.110;2023-03-23T00:10:59;14;13;
72329;PMS5003;60660;52.076;5.110;2023-03-23T00:13:25;12;11;
72329;PMS5003;60660;52.076;5.110;2023-03-23T00:15:50;13;12;
72329;PMS5003;60660;52.076;5.110;2023-03-23T00:18:15;13;13;
72329;PMS5003;60660;52.076;5.110;2023-03-23T00:20:40;15;14;
72329;PMS5003;60660;52.076;5.110;2023-03-23T00:23:06;13;11;
72329;PMS5003;60660;52.076;5.110;2023-03-23T00:25:31;16;16;
72329;PMS5003;60660;52.076;5.110;2023-03-23T00:27:56;12;12;
72329;PMS5003;60660;52.076;5.110;2023-03-23T00:30:21;12;12;
72329;PMS5003;60660;52.076;5.110;2023-03-23T00:32:47;11;10;
72329;PMS5003;60660;52.076;5.110;2023-03-23T00:35:12;10;10;
72329;PMS5003;60660;52.076;5.110;2023-03-23T00:37:38;11;10;
72329;PMS5003;60660;52.076;5.110;2023-03-23T00:40:03;14;14;
72329;PMS5003;60660;52.076;5.110;2023-03-23T00:42:28;12;11;
72329;PMS5003;60660;52.076;5.110;2023-03-23T00:44:53;13;13;
72329;PMS5003;60660;52.076;5.110;2023-03-23T00:47:19;15;13;
72329;PMS5003;60660;52.076;5.110;2023-03-23T00:49:44;9;9;
72329;PMS5003;60660;52.076;5.110;2023-03-23T00:52:10;11;9;
72329;PMS5003;60660;52.076;5.110;2023-03-23T00:54:35;8;8;
72329;PMS5003;60660;52.076;5.110;2023-03-23T00:57:00;10;8;
72329;PMS5003;60660;52.076;5.110;2023-03-23T00:59:26;8;7;
72329;PMS5003;60660;52.076;5.110;2023-03-23T01:01:51;8;8;
72329;PMS5003;60660;52.076;5.110;2023-03-23T01:04:16;9;9;
72329;PMS5003;60660;52.076;5.110;2023-03-23T01:06:42;13;12;
72329;PMS5003;60660;52.076;5.110;2023-03-23T01:09:08;8;8;
72329;PMS5003;60660;52.076;5.110;2023-03-23T01:11:32;10;10;
72329;PMS5003;60660;52.076;5.110;2023-03-23T01:13:57;8;8;
72329;PMS5003;60660;52.076;5.110;2023-03-23T01:16:23;8;7;
72329;PMS5003;60660;52.076;5.110;2023-03-23T01:18:48;7;7;
72329;PMS5003;60660;52.076;5.110;2023-03-23T01:21:14;10;10;
72329;PMS5003;60660;52.076;5.110;2023-03-23T01:23:38;8;7;
72329;PMS5003;60660;52.076;5.110;2023-03-23T01:26:04;8;8;
72329;PMS5003;60660;52.076;5.110;2023-03-23T01:28:29;8;7;
72329;PMS5003;60660;52.076;5.110;2023-03-23T01:30:58;9;9;
72329;PMS5003;60660;52.076;5.110;2023-03-23T01:33:19;12;12;
72329;PMS5003;60660;52.076;5.110;2023-03-23T01:35:44;12;11;
72329;PMS5003;60660;52.076;5.110;2023-03-23T01:38:10;11;10;
72329;PMS5003;60660;52.076;5.110;2023-03-23T01:40:35;8;7;
72329;PMS5003;60660;52.076;5.110;2023-03-23T01:43:00;12;12;
72329;PMS5003;60660;52.076;5.110;2023-03-23T01:45:27;7;7;
72329;PMS5003;60660;52.076;5.110;2023-03-23T01:47:51;8;8;
72329;PMS5003;60660;52.076;5.110;2023-03-23T01:50:16;10;9;
72329;PMS5003;60660;52.076;5.110;2023-03-23T01:52:41;8;8;
72329;PMS5003;60660;52.076;5.110;2023-03-23T01:55:07;8;7;
72329;PMS5003;60660;52.076;5.110;2023-03-23T01:57:31;7;7;
72329;PMS5003;60660;52.076;5.110;2023-03-23T01:59:57;6;6;
72329;PMS5003;60660;52.076;5.110;2023-03-23T02:02:22;10;8;
72329;PMS5003;60660;52.076;5.110;2023-03-23T02:04:48;8;8;
72329;PMS5003;60660;52.076;5.110;2023-03-23T02:07:13;7;7;
72329;PMS5003;60660;52.076;5.110;2023-03-23T02:09:38;11;10;
72329;PMS5003;60660;52.076;5.110;2023-03-23T02:12:03;9;8;
72329;PMS5003;60660;52.076;5.110;2023-03-23T02:14:28;7;7;
72329;PMS5003;60660;52.076;5.110;2023-03-23T02:16:55;11;9;
72329;PMS5003;60660;52.076;5.110;2023-03-23T02:19:24;10;9;
72329;PMS5003;60660;52.076;5.110;2023-03-23T02:21:56;8;8;
72329;PMS5003;60660;52.076;5.110;2023-03-23T02:24:29;6;6;
72329;PMS5003;60660;52.076;5.110;2023-03-23T02:26:38;7;7;
72329;PMS5003;60660;52.076;5.110;2023-03-23T02:29:03;8;8;
72329;PMS5003;60660;52.076;5.110;2023-03-23T02:31:31;9;9;
72329;PMS5003;60660;52.076;5.110;2023-03-23T02:33:52;9;8;
72329;PMS5003;60660;52.076;5.110;2023-03-23T02:36:19;11;11;
72329;PMS5003;60660;52.076;5.110;2023-03-23T02:38:43;7;6;
72329;PMS5003;60660;52.076;5.110;2023-03-23T02:41:07;11;9;
72329;PMS5003;60660;52.076;5.110;2023-03-23T02:43:33;7;7;
72329;PMS5003;60660;52.076;5.110;2023-03-23T02:45:57;8;7;
72329;PMS5003;60660;52.076;5.110;2023-03-23T02:48:24;9;8;
72329;PMS5003;60660;52.076;5.110;2023-03-23T02:50:49;9;9;
72329;PMS5003;60660;52.076;5.110;2023-03-23T02:53:16;11;11;
72329;PMS5003;60660;52.076;5.110;2023-03-23T02:55:39;11;9;
72329;PMS5003;60660;52.076;5.110;2023-03-23T02:58:04;7;7;
72329;PMS5003;60660;52.076;5.110;2023-03-23T03:00:29;10;8;
72329;PMS5003;60660;52.076;5.110;2023-03-23T03:02:55;10;10;
72329;PMS5003;60660;52.076;5.110;2023-03-23T03:05:24;7;7;
72329;PMS5003;60660;52.076;5.110;2023-03-23T03:07:47;7;7;
72329;PMS5003;60660;52.076;5.110;2023-03-23T03:10:11;7;6;
72329;PMS5003;60660;52.076;5.110;2023-03-23T03:12:36;8;8;
72329;PMS5003;60660;52.076;5.110;2023-03-23T03:15:04;7;6;
72329;PMS5003;60660;52.076;5.110;2023-03-23T03:17:26;7;7;
72329;PMS5003;60660;52.076;5.110;2023-03-23T03:19:52;6;6;
72329;PMS5003;60660;52.076;5.110;2023-03-23T03:22:16;7;6;
72329;PMS5003;60660;52.076;5.110;2023-03-23T03:24:42;5;5;
72329;PMS5003;60660;52.076;5.110;2023-03-23T03:27:10;5;4;
72329;PMS5003;60660;52.076;5.110;2023-03-23T03:29:32;6;5;
72329;PMS5003;60660;52.076;5.110;2023-03-23T03:31:57;8;7;
72329;PMS5003;60660;52.076;5.110;2023-03-23T03:34:23;7;7;
72329;PMS5003;60660;52.076;5.110;2023-03-23T03:36:48;4;4;
72329;PMS5003;60660;52.076;5.110;2023-03-23T03:39:14;6;6;
72329;PMS5003;60660;52.076;5.110;2023-03-23T03:41:38;6;5;
72329;PMS5003;60660;52.076;5.110;2023-03-23T03:44:05;4;4;
72329;PMS5003;60660;52.076;5.110;2023-03-23T03:46:29;4;4;
72329;PMS5003;60660;52.076;5.110;2023-03-23T03:48:54;7;7;
72329;PMS5003;60660;52.076;5.110;2023-03-23T03:51:19;7;6;
72329;PMS5003;60660;52.076;5.110;2023-03-23T03:53:45;5;5;
72329;PMS5003;60660;52.076;5.110;2023-03-23T03:56:10;7;6;
72329;PMS5003;60660;52.076;5.110;2023-03-23T03:58:35;5;5;
72329;PMS5003;60660;52.076;5.110;2023-03-23T04:01:00;6;5;
72329;PMS5003;60660;52.076;5.110;2023-03-23T04:03:26;5;5;
72329;PMS5003;60660;52.076;5.110;2023-03-23T04:05:51;4;4;
72329;PMS5003;60660;52.076;5.110;2023-03-23T04:08:16;4;4;
72329;PMS5003;60660;52.076;5.110;2023-03-23T04:10:42;4;4;
72329;PMS5003;60660;52.076;5.110;2023-03-23T04:13:07;4;4;
72329;PMS5003;60660;52.076;5.110;2023-03-23T04:15:32;4;4;
72329;PMS5003;60660;52.076;5.110;2023-03-23T04:17:57;6;5;
72329;PMS5003;60660;52.076;5.110;2023-03-23T04:20:23;5;4;
72329;PMS5003;60660;52.076;5.110;2023-03-23T04:22:48;5;5;
72329;PMS5003;60660;52.076;5.110;2023-03-23T04:25:13;4;4;
72329;PMS5003;60660;52.076;5.110;2023-03-23T04:27:38;3;3;
72329;PMS5003;60660;52.076;5.110;2023-03-23T04:30:04;4;4;
72329;PMS5003;60660;52.076;5.110;2023-03-23T04:32:29;3;3;
72329;PMS5003;60660;52.076;5.110;2023-03-23T04:34:54;4;4;
72329;PMS5003;60660;52.076;5.110;2023-03-23T04:37:19;3;3;
72329;PMS5003;60660;52.076;5.110;2023-03-23T04:39:44;4;3;
72329;PMS5003;60660;52.076;5.110;2023-03-23T04:42:10;3;3;
72329;PMS5003;60660;52.076;5.110;2023-03-23T04:44:35;3;3;
72329;PMS5003;60660;52.076;5.110;2023-03-23T04:47:00;4;4;
72329;PMS5003;60660;52.076;5.110;2023-03-23T04:49:25;4;3;
72329;PMS5003;60660;52.076;5.110;2023-03-23T04:51:50;3;3;
72329;PMS5003;60660;52.076;5.110;2023-03-23T04:54:16;4;3;
72329;PMS5003;60660;52.076;5.110;2023-03-23T04:56:41;3;3;
72329;PMS5003;60660;52.076;5.110;2023-03-23T04:59:06;5;5;
72329;PMS5003;60660;52.076;5.110;2023-03-23T05:01:31;4;3;
72329;PMS5003;60660;52.076;5.110;2023-03-23T05:03:57;4;3;
72329;PMS5003;60660;52.076;5.110;2023-03-23T05:06:22;4;4;
72329;PMS5003;60660;52.076;5.110;2023-03-23T05:08:48;6;5;
72329;PMS5003;60660;52.076;5.110;2023-03-23T05:11:12;3;3;
72329;PMS5003;60660;52.076;5.110;2023-03-23T05:13:38;7;5;
72329;PMS5003;60660;52.076;5.110;2023-03-23T05:16:03;3;3;
72329;PMS5003;60660;52.076;5.110;2023-03-23T05:18:28;4;3;
72329;PMS5003;60660;52.076;5.110;2023-03-23T05:20:54;3;3;
72329;PMS5003;60660;52.076;5.110;2023-03-23T05:23:19;9;4;
72329;PMS5003;60660;52.076;5.110;2023-03-23T05:25:44;5;5;
72329;PMS5003;60660;52.076;5.110;2023-03-23T05:28:10;3;3;
72329;PMS5003;60660;52.076;5.110;2023-03-23T05:30:35;5;5;
72329;PMS5003;60660;52.076;5.110;2023-03-23T05:33:00;5;4;
72329;PMS5003;60660;52.076;5.110;2023-03-23T05:35:25;4;4;
72329;PMS5003;60660;52.076;5.110;2023-03-23T05:37:50;5;5;
72329;PMS5003;60660;52.076;5.110;2023-03-23T05:40:15;6;5;
72329;PMS5003;60660;52.076;5.110;2023-03-23T05:42:41;6;5;
72329;PMS5003;60660;52.076;5.110;2023-03-23T05:45:07;5;4;
72329;PMS5003;60660;52.076;5.110;2023-03-23T05:47:31;4;3;
72329;PMS5003;60660;52.076;5.110;2023-03-23T05:49:56;4;4;
72329;PMS5003;60660;52.076;5.110;2023-03-23T05:52:22;5;5;
72329;PMS5003;60660;52.076;5.110;2023-03-23T05:54:47;5;5;
72329;PMS5003;60660;52.076;5.110;2023-03-23T05:57:12;5;5;
72329;PMS5003;60660;52.076;5.110;2023-03-23T05:59:38;5;5;
72329;PMS5003;60660;52.076;5.110;2023-03-23T06:02:03;7;7;
72329;PMS5003;60660;52.076;5.110;2023-03-23T06:04:28;4;4;
72329;PMS5003;60660;52.076;5.110;2023-03-23T06:06:54;6;6;
72329;PMS5003;60660;52.076;5.110;2023-03-23T06:09:19;7;7;
72329;PMS5003;60660;52.076;5.110;2023-03-23T06:11:45;9;7;
72329;PMS5003;60660;52.076;5.110;2023-03-23T06:14:10;5;4;
72329;PMS5003;60660;52.076;5.110;2023-03-23T06:16:40;5;5;
72329;PMS5003;60660;52.076;5.110;2023-03-23T06:19:01;7;6;
72329;PMS5003;60660;52.076;5.110;2023-03-23T06:21:26;7;4;
72329;PMS5003;60660;52.076;5.110;2023-03-23T06:23:51;7;7;
72329;PMS5003;60660;52.076;5.110;2023-03-23T06:26:18;5;5;
72329;PMS5003;60660;52.076;5.110;2023-03-23T06:28:42;6;6;
72329;PMS5003;60660;52.076;5.110;2023-03-23T06:31:07;7;7;
72329;PMS5003;60660;52.076;5.110;2023-03-23T06:33:33;8;8;
72329;PMS5003;60660;52.076;5.110;2023-03-23T06:35:58;6;5;
72329;PMS5003;60660;52.076;5.110;2023-03-23T06:38:23;6;5;
72329;PMS5003;60660;52.076;5.110;2023-03-23T06:40:51;4;4;
72329;PMS5003;60660;52.076;5.110;2023-03-23T06:43:14;7;4;
72329;PMS5003;60660;52.076;5.110;2023-03-23T06:45:39;9;7;
72329;PMS5003;60660;52.076;5.110;2023-03-23T06:48:04;5;5;
72329;PMS5003;60660;52.076;5.110;2023-03-23T06:50:30;6;6;
72329;PMS5003;60660;52.076;5.110;2023-03-23T06:52:55;5;5;
72329;PMS5003;60660;52.076;5.110;2023-03-23T06:55:21;5;5;
72329;PMS5003;60660;52.076;5.110;2023-03-23T06:57:47;6;6;
72329;PMS5003;60660;52.076;5.110;2023-03-23T07:00:13;5;5;
72329;PMS5003;60660;52.076;5.110;2023-03-23T07:02:37;7;6;
72329;PMS5003;60660;52.076;5.110;2023-03-23T07:05:02;9;7;
72329;PMS5003;60660;52.076;5.110;2023-03-23T07:07:28;6;6;
72329;PMS5003;60660;52.076;5.110;2023-03-23T07:09:53;9;7;
72329;PMS5003;60660;52.076;5.110;2023-03-23T07:12:18;6;6;
72329;PMS5003;60660;52.076;5.110;2023-03-23T07:14:44;4;4;
72329;PMS5003;60660;52.076;5.110;2023-03-23T07:17:09;6;6;
72329;PMS5003;60660;52.076;5.110;2023-03-23T07:19:34;5;5;
72329;PMS5003;60660;52.076;5.110;2023-03-23T07:21:59;4;4;
72329;PMS5003;60660;52.076;5.110;2023-03-23T07:24:25;4;4;
72329;PMS5003;60660;52.076;5.110;2023-03-23T07:26:50;6;6;
72329;PMS5003;60660;52.076;5.110;2023-03-23T07:29:16;7;5;
72329;PMS5003;60660;52.076;5.110;2023-03-23T07:31:40;4;4;
72329;PMS5003;60660;52.076;5.110;2023-03-23T07:34:06;5;5;
72329;PMS5003;60660;52.076;5.110;2023-03-23T07:36:31;6;4;
72329;PMS5003;60660;52.076;5.110;2023-03-23T07:38:57;4;4;
72329;PMS5003;60660;52.076;5.110;2023-03-23T07:41:22;6;5;
72329;PMS5003;60660;52.076;5.110;2023-03-23T07:43:47;5;4;
72329;PMS5003;60660;52.076;5.110;2023-03-23T07:46:13;4;4;
72329;PMS5003;60660;52.076;5.110;2023-03-23T07:48:37;5;4;
72329;PMS5003;60660;52.076;5.110;2023-03-23T07:51:03;4;3;
72329;PMS5003;60660;52.076;5.110;2023-03-23T07:53:28;10;7;
72329;PMS5003;60660;52.076;5.110;2023-03-23T07:55:53;9;7;
72329;PMS5003;60660;52.076;5.110;2023-03-23T07:58:19;6;5;
72329;PMS5003;60660;52.076;5.110;2023-03-23T08:00:44;5;4;
72329;PMS5003;60660;52.076;5.110;2023-03-23T08:03:09;7;5;
72329;PMS5003;60660;52.076;5.110;2023-03-23T08:05:34;4;4;
72329;PMS5003;60660;52.076;5.110;2023-03-23T08:08:00;4;4;
72329;PMS5003;60660;52.076;5.110;2023-03-23T08:10:26;5;5;
72329;PMS5003;60660;52.076;5.110;2023-03-23T08:12:51;4;4;
72329;PMS5003;60660;52.076;5.110;2023-03-23T08:15:16;5;4;
72329;PMS5003;60660;52.076;5.110;2023-03-23T08:17:41;5;5;
72329;PMS5003;60660;52.076;5.110;2023-03-23T08:20:07;7;5;
72329;PMS5003;60660;52.076;5.110;2023-03-23T08:22:31;8;7;
72329;PMS5003;60660;52.076;5.110;2023-03-23T08:24:57;7;6;
72329;PMS5003;60660;52.076;5.110;2023-03-23T08:27:22;6;5;
72329;PMS5003;60660;52.076;5.110;2023-03-23T08:29:48;8;7;
72329;PMS5003;60660;52.076;5.110;2023-03-23T08:32:12;6;6;
72329;PMS5003;60660;52.076;5.110;2023-03-23T08:34:38;6;6;
72329;PMS5003;60660;52.076;5.110;2023-03-23T08:37:03;8;7;
72329;PMS5003;60660;52.076;5.110;2023-03-23T08:39:29;8;7;
72329;PMS5003;60660;52.076;5.110;2023-03-23T08:41:54;8;6;
72329;PMS5003;60660;52.076;5.110;2023-03-23T08:44:19;4;4;
72329;PMS5003;60660;52.076;5.110;2023-03-23T08:46:44;7;6;
72329;PMS5003;60660;52.076;5.110;2023-03-23T08:49:10;5;5;
72329;PMS5003;60660;52.076;5.110;2023-03-23T08:51:35;4;4;
72329;PMS5003;60660;52.076;5.110;2023-03-23T08:54:00;6;5;
72329;PMS5003;60660;52.076;5.110;2023-03-23T08:56:27;8;7;
72329;PMS5003;60660;52.076;5.110;2023-03-23T08:58:51;5;5;
72329;PMS5003;60660;52.076;5.110;2023-03-23T09:01:16;6;5;
72329;PMS5003;60660;52.076;5.110;2023-03-23T09:03:41;4;4;
72329;PMS5003;60660;52.076;5.110;2023-03-23T09:06:08;8;8;
72329;PMS5003;60660;52.076;5.110;2023-03-23T09:08:32;7;4;
72329;PMS5003;60660;52.076;5.110;2023-03-23T09:10:58;7;5;
72329;PMS5003;60660;52.076;5.110;2023-03-23T09:13:22;7;6;
72329;PMS5003;60660;52.076;5.110;2023-03-23T09:15:48;7;7;
72329;PMS5003;60660;52.076;5.110;2023-03-23T09:18:13;7;7;
72329;PMS5003;60660;52.076;5.110;2023-03-23T09:20:38;7;6;
72329;PMS5003;60660;52.076;5.110;2023-03-23T09:23:03;8;7;
72329;PMS5003;60660;52.076;5.110;2023-03-23T09:25:28;4;4;
72329;PMS5003;60660;52.076;5.110;2023-03-23T09:27:54;5;5;
72329;PMS5003;60660;52.076;5.110;2023-03-23T09:30:19;10;9;
72329;PMS5003;60660;52.076;5.110;2023-03-23T09:32:45;4;3;
72329;PMS5003;60660;52.076;5.110;2023-03-23T09:35:11;6;4;
72329;PMS5003;60660;52.076;5.110;2023-03-23T09:37:37;5;4;
72329;PMS5003;60660;52.076;5.110;2023-03-23T09:40:02;5;4;
72329;PMS5003;60660;52.076;5.110;2023-03-23T09:42:31;6;5;
72329;PMS5003;60660;52.076;5.110;2023-03-23T09:44:56;5;5;
72329;PMS5003;60660;52.076;5.110;2023-03-23T09:47:18;5;3;
72329;PMS5003;60660;52.076;5.110;2023-03-23T09:49:43;5;4;
72329;PMS5003;60660;52.076;5.110;2023-03-23T09:52:09;3;3;
72329;PMS5003;60660;52.076;5.110;2023-03-23T09:54:34;6;5;
72329;PMS5003;60660;52.076;5.110;2023-03-23T09:56:59;4;4;
72329;PMS5003;60660;52.076;5.110;2023-03-23T09:59:25;5;4;
72329;PMS5003;60660;52.076;5.110;2023-03-23T10:01:50;3;3;
72329;PMS5003;60660;52.076;5.110;2023-03-23T10:04:17;3;3;
72329;PMS5003;60660;52.076;5.110;2023-03-23T10:06:41;5;5;
72329;PMS5003;60660;52.076;5.110;2023-03-23T10:09:04;6;4;
72329;PMS5003;60660;52.076;5.110;2023-03-23T10:11:32;4;3;
72329;PMS5003;60660;52.076;5.110;2023-03-23T10:14:01;5;4;
72329;PMS5003;60660;52.076;5.110;2023-03-23T10:16:21;5;5;
72329;PMS5003;60660;52.076;5.110;2023-03-23T10:18:47;5;5;
72329;PMS5003;60660;52.076;5.110;2023-03-23T10:21:11;5;4;
72329;PMS5003;60660;52.076;5.110;2023-03-23T10:23:39;8;7;
72329;PMS5003;60660;52.076;5.110;2023-03-23T10:26:02;6;6;
72329;PMS5003;60660;52.076;5.110;2023-03-23T10:28:34;5;4;
72329;PMS5003;60660;52.076;5.110;2023-03-23T10:30:52;4;4;
72329;PMS5003;60660;52.076;5.110;2023-03-23T10:33:18;6;4;
72329;PMS5003;60660;52.076;5.110;2023-03-23T10:35:43;5;5;
72329;PMS5003;60660;52.076;5.110;2023-03-23T10:38:13;7;5;
72329;PMS5003;60660;52.076;5.110;2023-03-23T10:40:45;5;5;
72329;PMS5003;60660;52.076;5.110;2023-03-23T10:42:58;6;6;
72329;PMS5003;60660;52.076;5.110;2023-03-23T10:45:24;6;5;
72329;PMS5003;60660;52.076;5.110;2023-03-23T10:47:49;4;4;
72329;PMS5003;60660;52.076;5.110;2023-03-23T10:50:14;5;5;
72329;PMS5003;60660;52.076;5.110;2023-03-23T10:52:39;5;5;
72329;PMS5003;60660;52.076;5.110;2023-03-23T10:55:05;5;5;
72329;PMS5003;60660;52.076;5.110;2023-03-23T10:57:31;5;4;
72329;PMS5003;60660;52.076;5.110;2023-03-23T10:59:58;6;5;
72329;PMS5003;60660;52.076;5.110;2023-03-23T11:02:20;4;4;
72329;PMS5003;60660;52.076;5.110;2023-03-23T11:04:46;5;4;
72329;PMS5003;60660;52.076;5.110;2023-03-23T11:07:13;6;5;
72329;PMS5003;60660;52.076;5.110;2023-03-23T11:09:37;6;6;
72329;PMS5003;60660;52.076;5.110;2023-03-23T11:12:01;7;5;
72329;PMS5003;60660;52.076;5.110;2023-03-23T11:14:28;5;5;
72329;PMS5003;60660;52.076;5.110;2023-03-23T11:16:53;7;7;
72329;PMS5003;60660;52.076;5.110;2023-03-23T11:19:21;5;5;
72329;PMS5003;60660;52.076;5.110;2023-03-23T11:21:45;4;3;
72329;PMS5003;60660;52.076;5.110;2023-03-23T11:24:07;7;7;
72329;PMS5003;60660;52.076;5.110;2023-03-23T11:26:33;4;4;
72329;PMS5003;60660;52.076;5.110;2023-03-23T11:28:58;5;4;
72329;PMS5003;60660;52.076;5.110;2023-03-23T11:31:23;4;3;
72329;PMS5003;60660;52.076;5.110;2023-03-23T11:33:50;4;4;
72329;PMS5003;60660;52.076;5.110;2023-03-23T11:36:13;3;3;
72329;PMS5003;60660;52.076;5.110;2023-03-23T11:38:38;7;4;
72329;PMS5003;60660;52.076;5.110;2023-03-23T11:41:08;5;4;
72329;PMS5003;60660;52.076;5.110;2023-03-23T11:43:28;3;3;
72329;PMS5003;60660;52.076;5.110;2023-03-23T11:45:58;4;4;
72329;PMS5003;60660;52.076;5.110;2023-03-23T11:48:19;5;4;
72329;PMS5003;60660;52.076;5.110;2023-03-23T11:50:45;4;4;
72329;PMS5003;60660;52.076;5.110;2023-03-23T11:53:09;5;5;
72329;PMS5003;60660;52.076;5.110;2023-03-23T11:55:36;3;3;
72329;PMS5003;60660;52.076;5.110;2023-03-23T11:58:00;4;4;
72329;PMS5003;60660;52.076;5.110;2023-03-23T12:00:24;3;3;
72329;PMS5003;60660;52.076;5.110;2023-03-23T12:05:11;4;4;
72329;PMS5003;60660;52.076;5.110;2023-03-23T12:07:30;3;3;
72329;PMS5003;60660;52.076;5.110;2023-03-23T12:09:54;4;4;
72329;PMS5003;60660;52.076;5.110;2023-03-23T12:12:18;3;3;
72329;PMS5003;60660;52.076;5.110;2023-03-23T12:14:43;5;4;
72329;PMS5003;60660;52.076;5.110;2023-03-23T12:17:11;2;2;
72329;PMS5003;60660;52.076;5.110;2023-03-23T12:19:35;4;4;
72329;PMS5003;60660;52.076;5.110;2023-03-23T12:21:58;5;5;
72329;PMS5003;60660;52.076;5.110;2023-03-23T12:24:28;4;4;
72329;PMS5003;60660;52.076;5.110;2023-03-23T12:26:49;4;3;
72329;PMS5003;60660;52.076;5.110;2023-03-23T12:29:32;4;4;
72329;PMS5003;60660;52.076;5.110;2023-03-23T12:31:39;4;4;
72329;PMS5003;60660;52.076;5.110;2023-03-23T12:34:05;4;4;
72329;PMS5003;60660;52.076;5.110;2023-03-23T12:36:32;2;2;
72329;PMS5003;60660;52.076;5.110;2023-03-23T12:38:58;5;4;
72329;PMS5003;60660;52.076;5.110;2023-03-23T12:41:18;2;2;
72329;PMS5003;60660;52.076;5.110;2023-03-23T12:43:47;4;4;
72329;PMS5003;60660;52.076;5.110;2023-03-23T12:46:14;3;3;
72329;PMS5003;60660;52.076;5.110;2023-03-23T12:48:33;3;3;
72329;PMS5003;60660;52.076;5.110;2023-03-23T12:51:03;3;3;
72329;PMS5003;60660;52.076;5.110;2023-03-23T12:53:23;4;4;
72329;PMS5003;60660;52.076;5.110;2023-03-23T12:55:48;5;4;
72329;PMS5003;60660;52.076;5.110;2023-03-23T12:58:14;4;4;
72329;PMS5003;60660;52.076;5.110;2023-03-23T13:00:48;2;2;
72329;PMS5003;60660;52.076;5.110;2023-03-23T13:03:05;4;3;
72329;PMS5003;60660;52.076;5.110;2023-03-23T13:05:32;2;2;
72329;PMS5003;60660;52.076;5.110;2023-03-23T13:08:10;3;3;
72329;PMS5003;60660;52.076;5.110;2023-03-23T13:10:34;3;3;
72329;PMS5003;60660;52.076;5.110;2023-03-23T13:12:59;2;2;
72329;PMS5003;60660;52.076;5.110;2023-03-23T13:15:29;4;3;
72329;PMS5003;60660;52.076;5.110;2023-03-23T13:17:51;3;3;
72329;PMS5003;60660;52.076;5.110;2023-03-23T13:20:34;3;2;
72329;PMS5003;60660;52.076;5.110;2023-03-23T13:22:43;3;3;
72329;PMS5003;60660;52.076;5.110;2023-03-23T13:25:08;4;4;
72329;PMS5003;60660;52.076;5.110;2023-03-23T13:27:32;2;2;
72329;PMS5003;60660;52.076;5.110;2023-03-23T13:29:57;3;3;
72329;PMS5003;60660;52.076;5.110;2023-03-23T13:32:27;4;4;
72329;PMS5003;60660;52.076;5.110;2023-03-23T13:34:48;3;3;
72329;PMS5003;60660;52.076;5.110;2023-03-23T13:37:19;3;3;
72329;PMS5003;60660;52.076;5.110;2023-03-23T13:39:38;4;3;
72329;PMS5003;60660;52.076;5.110;2023-03-23T13:42:04;5;3;
72329;PMS5003;60660;52.076;5.110;2023-03-23T13:44:40;3;2;
72329;PMS5003;60660;52.076;5.110;2023-03-23T13:46:53;2;2;
72329;PMS5003;60660;52.076;5.110;2023-03-23T13:49:19;10;6;
72329;PMS5003;60660;52.076;5.110;2023-03-23T13:52:00;6;4;
72329;PMS5003;60660;52.076;5.110;2023-03-23T13:54:20;2;2;
72329;PMS5003;60660;52.076;5.110;2023-03-23T13:56:35;5;4;
72329;PMS5003;60660;52.076;5.110;2023-03-23T13:59:05;6;6;
72329;PMS5003;60660;52.076;5.110;2023-03-23T14:01:31;4;4;
72329;PMS5003;60660;52.076;5.110;2023-03-23T14:03:49;7;5;
72329;PMS5003;60660;52.076;5.110;2023-03-23T14:06:14;4;3;
72329;PMS5003;60660;52.076;5.110;2023-03-23T14:08:40;5;4;
72329;PMS5003;60660;52.076;5.110;2023-03-23T14:11:09;6;4;
72329;PMS5003;60660;52.076;5.110;2023-03-23T14:13:30;7;6;
72329;PMS5003;60660;52.076;5.110;2023-03-23T14:15:55;6;5;
72329;PMS5003;60660;52.076;5.110;2023-03-23T14:18:19;5;5;
72329;PMS5003;60660;52.076;5.110;2023-03-23T14:20:45;2;2;
72329;PMS5003;60660;52.076;5.110;2023-03-23T14:23:14;5;4;
72329;PMS5003;60660;52.076;5.110;2023-03-23T14:25:34;3;3;
72329;PMS5003;60660;52.076;5.110;2023-03-23T14:27:59;3;3;
72329;PMS5003;60660;52.076;5.110;2023-03-23T14:30:25;3;3;
72329;PMS5003;60660;52.076;5.110;2023-03-23T14:32:50;4;3;
72329;PMS5003;60660;52.076;5.110;2023-03-23T14:35:17;3;2;
72329;PMS5003;60660;52.076;5.110;2023-03-23T14:37:41;3;2;
72329;PMS5003;60660;52.076;5.110;2023-03-23T14:40:08;3;2;
72329;PMS5003;60660;52.076;5.110;2023-03-23T14:42:33;3;3;
72329;PMS5003;60660;52.076;5.110;2023-03-23T14:44:59;3;2;
72329;PMS5003;60660;52.076;5.110;2023-03-23T14:47:24;3;3;
72329;PMS5003;60660;52.076;5.110;2023-03-23T14:49:52;2;2;
72329;PMS5003;60660;52.076;5.110;2023-03-23T14:52:16;5;4;
72329;PMS5003;60660;52.076;5.110;2023-03-23T14:54:41;4;4;
72329;PMS5003;60660;52.076;5.110;2023-03-23T14:57:11;3;3;
72329;PMS5003;60660;52.076;5.110;2023-03-23T14:59:33;2;2;
72329;PMS5003;60660;52.076;5.110;2023-03-23T15:01:59;3;3;
72329;PMS5003;60660;52.076;5.110;2023-03-23T15:04:29;3;3;
72329;PMS5003;60660;52.076;5.110;2023-03-23T15:06:51;2;2;
72329;PMS5003;60660;52.076;5.110;2023-03-23T15:09:17;3;3;
72329;PMS5003;60660;52.076;5.110;2023-03-23T15:11:42;5;4;
72329;PMS5003;60660;52.076;5.110;2023-03-23T15:14:08;4;3;
72329;PMS5003;60660;52.076;5.110;2023-03-23T15:16:32;5;4;
72329;PMS5003;60660;52.076;5.110;2023-03-23T15:18:58;4;3;
72329;PMS5003;60660;52.076;5.110;2023-03-23T15:21:24;2;2;
72329;PMS5003;60660;52.076;5.110;2023-03-23T15:23:53;4;3;
72329;PMS5003;60660;52.076;5.110;2023-03-23T15:26:19;3;2;
72329;PMS5003;60660;52.076;5.110;2023-03-23T15:28:39;7;5;
72329;PMS5003;60660;52.076;5.110;2023-03-23T15:31:03;3;3;
72329;PMS5003;60660;52.076;5.110;2023-03-23T15:33:33;2;2;
72329;PMS5003;60660;52.076;5.110;2023-03-23T15:35:54;3;3;
72329;PMS5003;60660;52.076;5.110;2023-03-23T15:38:20;4;3;
72329;PMS5003;60660;52.076;5.110;2023-03-23T15:40:45;5;5;
72329;PMS5003;60660;52.076;5.110;2023-03-23T15:43:14;5;3;
72329;PMS5003;60660;52.076;5.110;2023-03-23T15:45:37;6;4;
72329;PMS5003;60660;52.076;5.110;2023-03-23T15:48:09;5;4;
72329;PMS5003;60660;52.076;5.110;2023-03-23T15:50:33;3;3;
72329;PMS5003;60660;52.076;5.110;2023-03-23T15:52:51;4;3;
72329;PMS5003;60660;52.076;5.110;2023-03-23T15:55:21;4;3;
72329;PMS5003;60660;52.076;5.110;2023-03-23T15:57:42;5;3;
72329;PMS5003;60660;52.076;5.110;2023-03-23T16:00:08;5;5;
72329;PMS5003;60660;52.076;5.110;2023-03-23T16:02:32;5;4;
72329;PMS5003;60660;52.076;5.110;2023-03-23T16:04:57;2;2;
72329;PMS5003;60660;52.076;5.110;2023-03-23T16:07:23;5;5;
72329;PMS5003;60660;52.076;5.110;2023-03-23T16:09:47;5;3;
72329;PMS5003;60660;52.076;5.110;2023-03-23T16:12:12;4;3;
72329;PMS5003;60660;52.076;5.110;2023-03-23T16:14:38;5;4;
72329;PMS5003;60660;52.076;5.110;2023-03-23T16:17:03;5;5;
72329;PMS5003;60660;52.076;5.110;2023-03-23T16:19:28;4;4;
72329;PMS5003;60660;52.076;5.110;2023-03-23T16:21:53;6;5;
72329;PMS5003;60660;52.076;5.110;2023-03-23T16:24:18;5;4;
72329;PMS5003;60660;52.076;5.110;2023-03-23T16:26:43;5;3;
72329;PMS5003;60660;52.076;5.110;2023-03-23T16:29:09;4;4;
72329;PMS5003;60660;52.076;5.110;2023-03-23T16:31:33;4;4;
72329;PMS5003;60660;52.076;5.110;2023-03-23T16:33:58;6;4;
72329;PMS5003;60660;52.076;5.110;2023-03-23T16:36:23;6;3;